Time;durP1;ratioP1;P1;durP2;ratioP2;P2;SDS_P1;SDS_P2;PMS_P1;PMS_P2;Temp;Humidity;BMP_temperature;BMP_pressure;BME280_temperature;BME280_humidity;BME280_pressure;Samples;Min_cycle;Max_cycle;Signal;HPM_P1;HPM_P2
2022/07/29 00:01:44;;;;;;;;;;;;;;;21.10;47.55;98657.56;2619739;54;20341;-65
2022/07/29 00:04:14;;;;;;;;;;;;;;;21.13;47.45;98663.22;2619026;54;19943;-66
2022/07/29 00:06:46;;;;;;;;;;;;;;;21.08;47.75;98663.22;2618707;46;20021;-65
2022/07/29 00:09:16;;;;;;;;;;;;;;;20.99;47.60;98662.13;2620003;54;19945;-65
2022/07/29 00:11:45;;;;;;;;;;;;;;;20.83;48.34;98650.50;2622350;54;20434;-65
2022/07/29 00:14:14;;;;;;;;;;;;;;;20.68;48.75;98655.81;2623784;39;20253;-65
2022/07/29 00:16:44;;;;;;;;;;;;;;;20.63;49.13;98647.75;2624156;54;19957;-65
2022/07/29 00:19:14;;;;;;;;;;;;;;;20.63;49.06;98637.00;2623681;39;20111;-67
2022/07/29 00:21:43;;;;;;;;;;;;;;;20.64;48.57;98636.72;2620745;54;19946;-65
2022/07/29 00:24:15;;;;;;;;;;;;;;;20.66;48.84;98642.66;2620689;54;20014;-65
2022/07/29 00:26:45;;;;;;;;;;;;;;;20.67;48.73;98638.09;2621003;31;20472;-65
2022/07/29 00:29:15;;;;;;;;;;;;;;;20.61;48.72;98631.88;2619945;54;20461;-65
2022/07/29 00:32:02;;;;;;;;;;;;;;;20.56;49.09;98633.72;2620812;54;19939;-65
2022/07/29 00:37:14;;;;;;;;;;;;;;;20.49;49.34;98625.91;2619997;54;19942;-65
2022/07/29 00:39:46;;;;;;;;;;;;;;;20.40;49.49;98620.19;2619950;54;19951;-65
2022/07/29 00:42:16;;;;;;;;;;;;;;;20.36;49.44;98621.78;2620638;54;19946;-66
2022/07/29 00:44:45;;;;;;;;;;;;;;;20.33;49.21;98624.19;2620542;54;19939;-66
2022/07/29 00:47:15;;;;;;;;;;;;;;;20.38;49.35;98626.91;2620336;54;19945;-64
2022/07/29 00:49:44;;;;;;;;;;;;;;;20.36;48.89;98624.47;2619673;54;19951;-65
2022/07/29 00:52:14;;;;;;;;;;;;;;;20.34;49.12;98617.75;2620085;54;19946;-65
2022/07/29 00:54:48;;;;;;;;;;;;;;;20.29;48.94;98616.66;2620529;54;19939;-65
2022/07/29 00:57:17;;;;;;;;;;;;;;;20.21;49.34;98625.22;2620506;39;20330;-65
2022/07/29 00:59:46;;;;;;;;;;;;;;;20.11;49.55;98627.00;2620084;54;19947;-66
2022/07/29 01:02:16;;;;;;;;;;;;;;;20.07;49.89;98612.50;2619752;54;19958;-66
2022/07/29 01:04:45;;;;;;;;;;;;;;;20.05;49.90;98618.13;2620431;54;19939;-66
2022/07/29 01:07:15;;;;;;;;;;;;;;;19.99;49.79;98619.94;2620531;54;19947;-65
2022/07/29 01:09:44;;;;;;;;;;;;;;;19.93;49.76;98620.19;2620448;39;20354;-66
2022/07/29 01:12:19;;;;;;;;;;;;;;;19.92;50.11;98622.06;2620631;54;19959;-66
2022/07/29 01:14:50;;;;;;;;;;;;;;;19.92;50.18;98621.25;2620544;54;19954;-66
2022/07/29 01:17:23;;;;;;;;;;;;;;;19.96;49.76;98619.66;2620282;39;20346;-66
2022/07/29 01:19:55;;;;;;;;;;;;;;;19.96;49.40;98617.81;2620490;54;20785;-65
2022/07/29 01:22:37;;;;;;;;;;;;;;;19.88;49.81;98607.56;2622650;54;19954;-65
2022/07/29 01:25:22;;;;;;;;;;;;;;;19.70;50.28;98607.94;2621507;54;19953;-64
2022/07/29 01:28:04;;;;;;;;;;;;;;;19.56;50.52;98610.22;2620693;54;20003;-65
2022/07/29 01:30:37;;;;;;;;;;;;;;;19.45;51.45;98608.50;2619894;54;19953;-65
2022/07/29 01:33:10;;;;;;;;;;;;;;;19.50;51.03;98611.22;2620626;47;19961;-65
2022/07/29 01:35:42;;;;;;;;;;;;;;;19.50;51.73;98612.03;2620813;54;19942;-65
2022/07/29 01:38:15;;;;;;;;;;;;;;;19.49;51.44;98615.78;2619946;54;19950;-66
2022/07/29 01:40:47;;;;;;;;;;;;;;;19.54;51.28;98610.47;2620177;54;20403;-66
2022/07/29 01:43:19;;;;;;;;;;;;;;;19.46;51.51;98623.53;2619781;54;20429;-65
2022/07/29 01:45:54;;;;;;;;;;;;;;;19.42;51.97;98609.00;2620652;54;19950;-65
2022/07/29 01:48:25;;;;;;;;;;;;;;;19.32;51.58;98611.63;2620262;54;19947;-65
2022/07/29 01:51:00;;;;;;;;;;;;;;;19.16;52.57;98610.66;2619940;54;19946;-65
2022/07/29 01:53:31;;;;;;;;;;;;;;;19.24;52.27;98610.19;2621862;39;20329;-67
2022/07/29 01:56:06;;;;;;;;;;;;;;;19.29;52.28;98612.94;2620660;54;20434;-65
2022/07/29 01:58:38;;;;;;;;;;;;;;;19.23;52.50;98609.41;2620251;54;20477;-65
2022/07/29 02:01:11;;;;;;;;;;;;;;;19.23;53.08;98617.44;2620188;54;19954;-65
2022/07/29 02:03:41;;;;;;;;;;;;;;;19.16;52.84;98614.16;2619772;39;20349;-63
2022/07/29 02:06:12;;;;;;;;;;;;;;;19.16;53.31;98606.09;2621658;54;19946;-64
2022/07/29 02:08:42;;;;;;;;;;;;;;;19.18;53.18;98609.31;2621574;47;19945;-65
2022/07/29 02:11:11;;;;;;;;;;;;;;;18.95;53.56;98607.78;2622135;54;19945;-64
2022/07/29 02:13:41;;;;;;;;;;;;;;;18.92;53.95;98607.47;2622106;54;20422;-64
2022/07/29 02:16:14;;;;;;;;;;;;;;;18.88;54.31;98612.50;2621973;54;19947;-65
2022/07/29 02:18:46;;;;;;;;;;;;;;;18.85;54.90;98606.84;2621529;54;20518;-64
2022/07/29 02:21:17;;;;;;;;;;;;;;;18.79;54.84;98612.16;2621234;54;19939;-64
2022/07/29 02:23:48;;;;;;;;;;;;;;;18.72;55.00;98621.41;2621663;54;19947;-64
2022/07/29 02:26:20;;;;;;;;;;;;;;;18.69;55.36;98617.34;2621231;54;20430;-65
2022/07/29 02:28:50;;;;;;;;;;;;;;;18.67;55.85;98616.78;2622391;54;19939;-64
2022/07/29 02:31:25;;;;;;;;;;;;;;;18.71;55.60;98617.94;2620777;54;19938;-64
2022/07/29 02:33:55;;;;;;;;;;;;;;;18.63;55.91;98614.88;2621339;54;19942;-65
2022/07/29 02:36:26;;;;;;;;;;;;;;;18.53;56.10;98620.88;2622882;54;19951;-65
2022/07/29 02:38:57;;;;;;;;;;;;;;;18.46;56.07;98617.59;2624114;46;19962;-64
2022/07/29 02:41:30;;;;;;;;;;;;;;;18.38;57.36;98623.38;2627431;39;20233;-64
2022/07/29 02:44:01;;;;;;;;;;;;;;;18.32;57.70;98625.16;2625313;54;19950;-65
2022/07/29 02:46:35;;;;;;;;;;;;;;;18.24;58.65;98617.56;2624924;54;19945;-65
2022/07/29 02:49:09;;;;;;;;;;;;;;;18.19;58.08;98615.63;2623676;54;19939;-65
2022/07/29 02:51:43;;;;;;;;;;;;;;;18.28;58.11;98613.34;2624186;54;19973;-65
2022/07/29 02:54:17;;;;;;;;;;;;;;;18.30;58.13;98616.59;2622916;54;19987;-63
2022/07/29 02:56:48;;;;;;;;;;;;;;;18.25;58.32;98624.56;2623974;54;19947;-65
2022/07/29 02:59:22;;;;;;;;;;;;;;;18.17;58.90;98624.97;2622597;54;19947;-63
2022/07/29 03:01:54;;;;;;;;;;;;;;;18.03;59.76;98624.50;2623230;39;20318;-63
2022/07/29 03:04:28;;;;;;;;;;;;;;;17.86;60.81;98631.72;2622914;54;19954;-63
2022/07/29 03:07:00;;;;;;;;;;;;;;;17.79;60.70;98632.69;2622703;54;20085;-63
2022/07/29 03:09:30;;;;;;;;;;;;;;;17.75;61.00;98631.53;2622455;54;19947;-66
2022/07/29 03:12:00;;;;;;;;;;;;;;;17.72;61.22;98639.22;2622659;54;19947;-64
2022/07/29 03:14:30;;;;;;;;;;;;;;;17.72;61.57;98636.56;2622591;54;19954;-63
2022/07/29 03:17:02;;;;;;;;;;;;;;;17.72;61.46;98629.34;2622629;54;19945;-63
2022/07/29 03:19:32;;;;;;;;;;;;;;;17.73;61.51;98633.63;2622093;54;19946;-63
2022/07/29 03:22:02;;;;;;;;;;;;;;;17.77;61.14;98636.66;2622261;47;19943;-64
2022/07/29 03:24:33;;;;;;;;;;;;;;;17.75;61.50;98638.75;2622716;54;19970;-65
2022/07/29 03:27:02;;;;;;;;;;;;;;;17.79;61.65;98635.34;2622124;39;20337;-65
2022/07/29 03:29:32;;;;;;;;;;;;;;;17.76;61.30;98637.72;2621205;51;19958;-65
2022/07/29 03:32:08;;;;;;;;;;;;;;;17.79;61.58;98642.56;2621743;54;19947;-64
2022/07/29 03:34:39;;;;;;;;;;;;;;;17.80;61.43;98630.84;2621694;54;19950;-64
2022/07/29 03:37:09;;;;;;;;;;;;;;;17.79;61.29;98626.53;2621717;54;19947;-64
2022/07/29 03:39:42;;;;;;;;;;;;;;;17.78;61.99;98627.59;2621798;51;19946;-65
2022/07/29 03:42:14;;;;;;;;;;;;;;;17.83;61.70;98633.81;2621890;47;19939;-65
2022/07/29 03:44:45;;;;;;;;;;;;;;;17.79;62.18;98635.34;2621229;54;19945;-63
2022/07/29 03:47:19;;;;;;;;;;;;;;;17.74;62.16;98629.09;2620953;54;19950;-65
2022/07/29 03:49:52;;;;;;;;;;;;;;;17.78;61.74;98635.59;2620636;54;19947;-66
2022/07/29 03:52:22;;;;;;;;;;;;;;;17.78;61.83;98635.59;2619983;54;20006;-64
2022/07/29 03:54:52;;;;;;;;;;;;;;;17.74;62.00;98635.28;2620148;54;19939;-64
2022/07/29 03:57:22;;;;;;;;;;;;;;;17.74;62.17;98635.28;2620284;54;19946;-64
2022/07/29 03:59:53;;;;;;;;;;;;;;;17.79;61.65;98640.69;2619669;54;19946;-63
2022/07/29 04:02:25;;;;;;;;;;;;;;;17.82;61.47;98631.41;2594011;39;20388;-67
2022/07/29 04:04:58;;;;;;;;;;;;;;;17.79;61.68;98637.22;2624369;54;20018;-68
2022/07/29 04:07:28;;;;;;;;;;;;;;;17.72;61.60;98632.03;2618537;54;20002;-67
2022/07/29 04:09:58;;;;;;;;;;;;;;;17.74;61.58;98635.28;2618267;54;19946;-67
2022/07/29 04:12:27;;;;;;;;;;;;;;;17.72;61.78;98632.03;2617745;54;19958;-67
2022/07/29 04:14:57;;;;;;;;;;;;;;;17.77;62.06;98636.66;2618935;39;20349;-68
2022/07/29 04:17:29;;;;;;;;;;;;;;;17.72;61.40;98647.25;2618620;39;20338;-68
2022/07/29 04:19:58;;;;;;;;;;;;;;;17.71;61.58;98645.63;2617842;54;19946;-68
2022/07/29 04:22:27;;;;;;;;;;;;;;;17.67;61.45;98645.28;2618186;54;19954;-67
2022/07/29 04:24:57;;;;;;;;;;;;;;;17.75;61.73;98657.47;2618262;54;19939;-70
2022/07/29 04:27:32;;;;;;;;;;;;;;;17.76;61.17;98657.25;2618263;39;20435;-68
2022/07/29 04:30:01;;;;;;;;;;;;;;;17.83;61.13;98663.22;2617874;39;20322;-68
2022/07/29 04:32:33;;;;;;;;;;;;;;;17.85;60.84;98652.31;2619821;54;19939;-68
2022/07/29 04:35:02;;;;;;;;;;;;;;;17.87;61.21;98660.88;2622563;54;19938;-66
2022/07/29 04:37:32;;;;;;;;;;;;;;;17.95;61.04;98663.16;2622169;54;20041;-66
2022/07/29 04:40:01;;;;;;;;;;;;;;;18.06;60.52;98672.97;2621867;47;19945;-67
2022/07/29 04:42:31;;;;;;;;;;;;;;;18.14;60.76;98673.59;2622986;54;19942;-67
2022/07/29 04:45:00;;;;;;;;;;;;;;;18.15;60.69;98675.22;2621354;54;19947;-68
2022/07/29 04:47:30;;;;;;;;;;;;;;;18.19;60.56;98679.03;2618106;54;19958;-68
2022/07/29 04:50:02;;;;;;;;;;;;;;;18.02;60.71;98679.03;2618034;54;19942;-68
2022/07/29 04:52:32;;;;;;;;;;;;;;;17.92;60.90;98669.00;2617944;54;19945;-68
2022/07/29 04:55:01;;;;;;;;;;;;;;;17.98;60.91;98664.53;2618209;54;19946;-67
2022/07/29 04:57:30;;;;;;;;;;;;;;;18.07;61.66;98671.91;2617453;54;19950;-67
2022/07/29 05:00:00;;;;;;;;;;;;;;;18.06;61.78;98672.16;2617265;47;19945;-67
2022/07/29 05:02:30;;;;;;;;;;;;;;;18.14;61.82;98676.28;2618145;54;19939;-67
2022/07/29 05:04:59;;;;;;;;;;;;;;;18.27;61.43;98668.72;2617971;54;19943;-68
2022/07/29 05:07:31;;;;;;;;;;;;;;;18.35;61.45;98680.88;2618001;54;19950;-67
2022/07/29 05:10:00;;;;;;;;;;;;;;;18.44;61.71;98668.69;2617468;54;19970;-67
2022/07/29 05:12:30;;;;;;;;;;;;;;;18.56;61.19;98681.97;2617884;54;19938;-67
2022/07/29 05:14:59;;;;;;;;;;;;;;;18.61;61.16;98674.00;2617512;47;19950;-66
2022/07/29 05:17:29;;;;;;;;;;;;;;;18.56;61.23;98674.75;2617952;54;19945;-67
2022/07/29 05:19:58;;;;;;;;;;;;;;;18.53;61.19;98683.28;2617939;54;19945;-67
2022/07/29 05:22:27;;;;;;;;;;;;;;;18.52;61.01;98678.97;2617945;54;20430;-68
2022/07/29 05:24:59;;;;;;;;;;;;;;;18.62;61.09;98670.28;2618092;54;19939;-68
2022/07/29 05:27:37;;;;;;;;;;;;;;;18.74;60.66;98668.31;2617927;54;19946;-68
2022/07/29 05:30:07;;;;;;;;;;;;;;;18.91;60.71;98678.97;2617292;54;19946;-67
2022/07/29 05:32:36;;;;;;;;;;;;;;;19.01;60.10;98668.34;2617936;54;20436;-66
2022/07/29 05:35:06;;;;;;;;;;;;;;;19.04;60.13;98675.09;2618266;47;19942;-66
2022/07/29 05:37:35;;;;;;;;;;;;;;;19.14;60.21;98664.47;2617642;54;19950;-68
2022/07/29 05:40:08;;;;;;;;;;;;;;;19.23;59.57;98665.66;2617681;54;19939;-67
2022/07/29 05:42:37;;;;;;;;;;;;;;;19.32;59.39;98659.84;2617977;54;19946;-66
2022/07/29 05:45:08;;;;;;;;;;;;;;;19.39;59.47;98663.97;2617417;47;19939;-66
2022/07/29 05:47:37;;;;;;;;;;;;;;;19.41;59.56;98671.75;2618306;39;19998;-66
2022/07/29 05:50:07;;;;;;;;;;;;;;;19.45;59.09;98675.53;2617942;54;19947;-66
2022/07/29 05:52:36;;;;;;;;;;;;;;;19.46;59.18;98669.91;2618010;54;19947;-66
2022/07/29 05:55:09;;;;;;;;;;;;;;;19.48;59.09;98667.78;2618102;54;20053;-66
2022/07/29 05:57:38;;;;;;;;;;;;;;;19.60;59.21;98664.16;2618281;54;19951;-66
2022/07/29 06:00:08;;;;;;;;;;;;;;;19.58;59.03;98668.94;2618578;54;19946;-66
2022/07/29 06:02:41;;;;;;;;;;;;;;;19.43;58.80;98669.59;2617757;47;19950;-66
2022/07/29 06:05:10;;;;;;;;;;;;;;;19.37;58.57;98675.97;2619037;54;20452;-65
2022/07/29 06:07:45;;;;;;;;;;;;;;;19.33;58.69;98680.22;2619078;47;20441;-67
2022/07/29 06:10:22;;;;;;;;;;;;;;;19.27;58.32;98680.19;2619508;47;19946;-66
2022/07/29 06:12:55;;;;;;;;;;;;;;;19.33;58.29;98677.56;2620165;54;20034;-66
2022/07/29 06:15:24;;;;;;;;;;;;;;;19.43;58.17;98683.00;2619209;54;20440;-67
2022/07/29 06:17:54;;;;;;;;;;;;;;;19.57;58.32;98684.22;2617623;47;19942;-67
2022/07/29 06:20:29;;;;;;;;;;;;;;;19.55;58.64;98689.84;2618367;54;19962;-66
2022/07/29 06:22:59;;;;;;;;;;;;;;;19.68;58.46;98691.34;2618496;54;19946;-66
2022/07/29 06:25:32;;;;;;;;;;;;;;;19.78;58.09;98694.09;2620007;54;19958;-66
2022/07/29 06:28:01;;;;;;;;;;;;;;;19.97;58.10;98691.06;2622108;54;20030;-67
2022/07/29 06:30:31;;;;;;;;;;;;;;;20.04;57.75;98688.94;2624512;54;19946;-66
2022/07/29 06:33:01;;;;;;;;;;;;;;;20.04;57.90;98689.78;2623663;54;19935;-66
2022/07/29 06:35:31;;;;;;;;;;;;;;;20.22;57.23;98690.44;2624671;54;20029;-66
2022/07/29 06:38:11;;;;;;;;;;;;;;;20.26;56.77;98691.53;2624555;54;19943;-67
2022/07/29 06:41:03;;;;;;;;;;;;;;;20.27;56.05;98695.81;2619878;54;19938;-67
2022/07/29 06:43:37;;;;;;;;;;;;;;;20.35;56.70;98700.72;2617463;54;19961;-67
2022/07/29 06:46:21;;;;;;;;;;;;;;;20.55;55.91;98701.94;2617997;54;20413;-68
2022/07/29 06:48:51;;;;;;;;;;;;;;;20.60;55.28;98707.34;2617989;54;19946;-68
2022/07/29 06:51:21;;;;;;;;;;;;;;;20.58;54.51;98704.13;2617602;54;19985;-68
2022/07/29 06:53:53;;;;;;;;;;;;;;;20.74;54.16;98709.31;2618728;54;20045;-67
2022/07/29 06:56:35;;;;;;;;;;;;;;;20.89;54.00;98707.75;2618910;54;19938;-68
2022/07/29 06:59:07;;;;;;;;;;;;;;;20.99;53.43;98707.81;2618178;47;19946;-66
2022/07/29 07:01:37;;;;;;;;;;;;;;;21.11;53.88;98704.91;2618310;54;19946;-67
2022/07/29 07:04:08;;;;;;;;;;;;;;;21.08;51.48;98703.53;2618765;54;20034;-67
2022/07/29 07:06:38;;;;;;;;;;;;;;;20.98;50.71;98709.69;2618754;54;20763;-66
2022/07/29 07:09:07;;;;;;;;;;;;;;;20.93;50.13;98712.34;2618570;54;19939;-67
2022/07/29 07:11:39;;;;;;;;;;;;;;;20.87;50.25;98715.28;2620881;54;19946;-65
2022/07/29 07:14:08;;;;;;;;;;;;;;;20.95;50.06;98714.78;2625425;54;19947;-67
2022/07/29 07:16:38;;;;;;;;;;;;;;;20.93;49.85;98716.91;2624649;39;20332;-65
2022/07/29 07:19:07;;;;;;;;;;;;;;;21.00;49.82;98718.28;2623810;39;20298;-66
2022/07/29 07:21:37;;;;;;;;;;;;;;;21.14;49.79;98726.66;2618977;39;20353;-66
2022/07/29 07:24:07;;;;;;;;;;;;;;;21.25;49.38;98722.13;2618529;54;20660;-65
2022/07/29 07:26:39;;;;;;;;;;;;;;;21.40;49.28;98721.41;2618394;54;20421;-65
2022/07/29 07:29:08;;;;;;;;;;;;;;;21.56;48.72;98725.75;2618104;54;19953;-66
2022/07/29 07:31:39;;;;;;;;;;;;;;;21.79;49.05;98720.94;2618169;54;19939;-66
2022/07/29 07:34:08;;;;;;;;;;;;;;;21.98;48.68;98717.44;2617528;47;19970;-65
2022/07/29 07:36:37;;;;;;;;;;;;;;;22.13;48.46;98721.25;2618301;54;20436;-65
2022/07/29 07:39:07;;;;;;;;;;;;;;;22.13;47.98;98713.19;2617975;54;19948;-67
2022/07/29 07:41:39;;;;;;;;;;;;;;;22.15;47.95;98713.72;2618150;54;19939;-66
2022/07/29 07:44:08;;;;;;;;;;;;;;;22.19;48.13;98704.00;2618224;54;19965;-66
2022/07/29 07:46:44;;;;;;;;;;;;;;;22.17;47.65;98706.19;2618923;39;20328;-66
2022/07/29 07:49:14;;;;;;;;;;;;;;;22.27;47.26;98702.66;2618078;54;19947;-66
2022/07/29 07:51:43;;;;;;;;;;;;;;;22.29;46.98;98705.88;2618212;54;19979;-67
2022/07/29 07:54:18;;;;;;;;;;;;;;;22.29;47.45;98714.78;2618147;54;19946;-66
2022/07/29 07:56:51;;;;;;;;;;;;;;;22.32;47.10;98713.41;2617611;47;19939;-66
2022/07/29 07:59:21;;;;;;;;;;;;;;;22.35;47.17;98719.06;2617903;54;20461;-67
2022/07/29 08:01:51;;;;;;;;;;;;;;;22.27;47.76;98725.00;2618071;54;19945;-66
2022/07/29 08:04:24;;;;;;;;;;;;;;;22.23;47.24;98729.31;2617602;47;20018;-66
2022/07/29 08:06:57;;;;;;;;;;;;;;;22.19;46.78;98722.88;2617672;47;19943;-65
2022/07/29 08:09:27;;;;;;;;;;;;;;;22.17;47.18;98723.16;2618428;39;20333;-67
2022/07/29 08:12:03;;;;;;;;;;;;;;;22.21;47.00;98720.72;2619283;54;19945;-66
2022/07/29 08:14:32;;;;;;;;;;;;;;;22.26;47.20;98720.72;2621752;54;19954;-66
2022/07/29 08:17:02;;;;;;;;;;;;;;;22.25;47.17;98722.59;2620983;54;19954;-67
2022/07/29 08:19:31;;;;;;;;;;;;;;;22.27;46.94;98726.91;2621895;39;20344;-66
2022/07/29 08:22:01;;;;;;;;;;;;;;;22.34;47.00;98722.84;2620018;54;19939;-66
2022/07/29 08:24:52;;;;;;;;;;;;;;;22.32;46.95;98719.63;2618624;54;19947;-67
2022/07/29 08:27:26;;;;;;;;;;;;;;;22.41;46.78;98720.69;2618584;54;19939;-66
2022/07/29 08:30:12;;;;;;;;;;;;;;;22.53;47.03;98720.38;2618049;54;19939;-66
2022/07/29 08:32:41;;;;;;;;;;;;;;;22.64;46.94;98719.28;2618606;39;20330;-67
2022/07/29 08:35:22;;;;;;;;;;;;;;;22.80;46.01;98717.38;2618373;54;19965;-66
2022/07/29 08:37:52;;;;;;;;;;;;;;;22.89;46.22;98720.28;2618329;54;19938;-66
2022/07/29 08:40:23;;;;;;;;;;;;;;;23.12;45.65;98719.69;2618321;54;19943;-65
2022/07/29 08:43:06;;;;;;;;;;;;;;;23.24;45.74;98724.78;2617831;54;19954;-67
2022/07/29 08:45:43;;;;;;;;;;;;;;;23.32;45.20;98724.19;2618080;54;19954;-66
2022/07/29 08:48:17;;;;;;;;;;;;;;;23.52;44.97;98727.88;2617778;47;19939;-66
2022/07/29 08:50:47;;;;;;;;;;;;;;;23.59;45.15;98728.34;2617706;39;20357;-66
2022/07/29 08:53:18;;;;;;;;;;;;;;;23.74;45.02;98730.97;2617654;48;19946;-67
2022/07/29 08:55:48;;;;;;;;;;;;;;;23.83;44.97;98729.28;2618281;54;19951;-65
2022/07/29 08:58:21;;;;;;;;;;;;;;;23.92;44.15;98718.69;2618338;54;19954;-66
2022/07/29 09:00:53;;;;;;;;;;;;;;;23.93;44.21;98729.22;2617876;54;19943;-65
2022/07/29 09:03:23;;;;;;;;;;;;;;;;;;2618043;54;19942;-66
2022/07/29 09:05:53;;;;;;;;;;;;;;;24.25;44.37;98727.06;2618083;54;19945;-65
2022/07/29 09:08:22;;;;;;;;;;;;;;;24.45;43.76;98730.44;2617954;54;19946;-65
2022/07/29 09:10:52;;;;;;;;;;;;;;;24.59;43.83;98730.56;2617730;54;19954;-66
2022/07/29 09:13:24;;;;;;;;;;;;;;;24.68;43.22;98723.44;2617617;54;19946;-67
2022/07/29 09:15:54;;;;;;;;;;;;;;;24.83;43.19;98727.88;2618408;39;20342;-66
2022/07/29 09:18:36;;;;;;;;;;;;;;;24.78;42.84;98716.28;2617851;54;19993;-67
2022/07/29 09:24:02;;;;;;;;;;;;;;;25.04;42.50;98728.44;2618089;54;19951;-67
2022/07/29 09:26:32;;;;;;;;;;;;;;;25.24;42.49;98723.91;2618273;54;19946;-65
2022/07/29 09:29:10;;;;;;;;;;;;;;;25.41;41.86;98726.91;2617965;54;19946;-66
2022/07/29 09:31:40;;;;;;;;;;;;;;;25.53;41.63;98727.28;2618024;54;19945;-65
2022/07/29 09:34:10;;;;;;;;;;;;;;;25.56;41.60;98721.31;2617815;54;19957;-65
2022/07/29 09:36:43;;;;;;;;;;;;;;;25.61;41.32;98721.22;2617890;54;19935;-66
2022/07/29 09:39:12;;;;;;;;;;;;;;;25.68;41.47;98727.06;2617792;54;19947;-66
2022/07/29 09:41:49;;;;;;;;;;;;;;;25.74;40.65;98724.28;2617926;54;19951;-66
2022/07/29 09:44:21;;;;;;;;;;;;;;;25.90;41.24;98726.50;2617861;54;19946;-66
2022/07/29 09:46:55;;;;;;;;;;;;;;;26.20;40.29;98718.94;2618088;54;19946;-65
2022/07/29 09:49:26;;;;;;;;;;;;;;;26.32;40.18;98718.50;2617853;54;19942;-66
2022/07/29 09:52:02;;;;;;;;;;;;;;;26.40;40.27;98712.38;2617795;54;19946;-66
2022/07/29 09:54:36;;;;;;;;;;;;;;;26.54;39.75;98709.75;2617635;39;20353;-66
2022/07/29 09:57:06;;;;;;;;;;;;;;;26.65;39.26;98709.22;2617292;54;19949;-66
2022/07/29 09:59:38;;;;;;;;;;;;;;;26.62;39.17;98709.84;2618504;39;20326;-67
2022/07/29 10:02:19;;;;;;;;;;;;;;;26.55;39.32;98714.84;2617361;54;19939;-66
2022/07/29 10:04:52;;;;;;;;;;;;;;;26.52;39.08;98706.50;2617806;54;19939;-66
2022/07/29 10:07:21;;;;;;;;;;;;;;;26.71;38.80;98711.84;2618434;39;20329;-67
2022/07/29 10:09:55;;;;;;;;;;;;;;;26.97;39.15;98706.72;2618241;39;20330;-66
2022/07/29 10:12:24;;;;;;;;;;;;;;;27.06;38.76;98711.13;2617787;54;19939;-66
2022/07/29 10:14:56;;;;;;;;;;;;;;;27.13;38.42;98714.25;2617551;54;19946;-68
2022/07/29 10:17:26;;;;;;;;;;;;;;;27.07;38.65;98715.47;2619064;54;19935;-68
2022/07/29 10:19:55;;;;;;;;;;;;;;;26.98;38.39;98711.84;2618498;47;19951;-66
2022/07/29 10:22:27;;;;;;;;;;;;;;;27.10;37.98;98714.88;2620798;54;19939;-66
2022/07/29 10:25:18;;;;;;;;;;;;;;;27.31;37.49;98704.41;2620902;54;19943;-67
2022/07/29 10:27:48;;;;;;;;;;;;;;;27.36;37.31;98708.91;2620464;54;19953;-66
2022/07/29 10:30:21;;;;;;;;;;;;;;;27.45;37.50;98712.50;2621208;47;19953;-67
2022/07/29 10:33:01;;;;;;;;;;;;;;;27.57;37.14;98707.34;2622175;54;19953;-67
2022/07/29 10:35:38;;;;;;;;;;;;;;;27.72;37.04;98703.47;2619679;47;20449;-65
2022/07/29 10:38:23;;;;;;;;;;;;;;;27.84;36.65;98701.03;2620581;39;20368;-67
2022/07/29 10:43:49;;;;;;;;;;;;;;;27.80;36.77;98688.38;2619612;54;19971;-67
2022/07/29 10:46:23;;;;;;;;;;;;;;;27.67;36.06;98700.84;2624099;54;19962;-67
2022/07/29 10:49:08;;;;;;;;;;;;;;;27.47;36.79;98693.19;2624999;54;20481;-68
2022/07/29 10:51:54;;;;;;;;;;;;;;;27.33;36.91;98699.47;2622657;54;19945;-68
2022/07/29 10:54:39;;;;;;;;;;;;;;;27.26;36.79;98690.94;2619356;54;20874;-66
2022/07/29 10:57:15;;;;;;;;;;;;;;;27.29;36.91;98686.81;2623569;54;19939;-67
2022/07/29 10:59:45;;;;;;;;;;;;;;;27.46;36.12;98683.44;2623720;54;19973;-68
2022/07/29 11:02:30;;;;;;;;;;;;;;;27.46;35.98;98678.81;2622935;54;19957;-67
2022/07/29 11:05:14;;;;;;;;;;;;;;;27.46;35.72;98678.00;2623644;39;20349;-67
2022/07/29 11:07:59;;;;;;;;;;;;;;;27.59;35.46;98679.88;2623546;39;20356;-66
2022/07/29 11:10:30;;;;;;;;;;;;;;;27.66;35.54;98681.06;2622500;54;19946;-66
2022/07/29 11:13:00;;;;;;;;;;;;;;;27.77;34.96;98673.50;2622780;54;19946;-66
2022/07/29 11:15:30;;;;;;;;;;;;;;;27.81;34.21;98671.78;2624328;39;20328;-66
2022/07/29 11:18:07;;;;;;;;;;;;;;;27.70;34.02;98666.88;2623064;46;19981;-65
2022/07/29 11:20:47;;;;;;;;;;;;;;;27.69;34.17;98671.50;2621945;54;19958;-65
2022/07/29 11:23:29;;;;;;;;;;;;;;;27.87;33.44;98667.81;2622148;39;20333;-65
2022/07/29 11:26:16;;;;;;;;;;;;;;;27.80;33.03;98672.91;2619372;39;20314;-65
2022/07/29 11:28:52;;;;;;;;;;;;;;;27.75;33.00;98674.91;2619675;39;20329;-65
2022/07/29 11:31:34;;;;;;;;;;;;;;;27.78;32.81;98672.38;2620178;54;19948;-66
2022/07/29 11:34:19;;;;;;;;;;;;;;;27.89;32.90;98659.38;2620164;54;19953;-66
2022/07/29 11:37:04;;;;;;;;;;;;;;;28.08;32.29;98659.94;2619694;54;19939;-66
2022/07/29 11:39:36;;;;;;;;;;;;;;;28.06;32.42;98659.47;2620338;54;19951;-67
2022/07/29 11:42:20;;;;;;;;;;;;;;;28.11;31.83;98663.97;2619847;54;19947;-67
2022/07/29 11:45:05;;;;;;;;;;;;;;;28.19;31.57;98662.41;2618861;54;20038;-66
2022/07/29 11:47:57;;;;;;;;;;;;;;;28.30;31.02;98661.03;2619767;54;20034;-66
2022/07/29 11:50:47;;;;;;;;;;;;;;;28.08;31.22;98648.28;2620071;54;19961;-66
2022/07/29 11:53:18;;;;;;;;;;;;;;;28.02;31.70;98653.06;2619830;54;19946;-66
2022/07/29 11:55:57;;;;;;;;;;;;;;;28.26;31.51;98651.91;2619654;54;20445;-67
2022/07/29 11:58:26;;;;;;;;;;;;;;;28.08;31.40;98640.94;2619857;54;20014;-67
2022/07/29 12:00:56;;;;;;;;;;;;;;;28.22;31.80;98645.50;2619165;54;19953;-68
2022/07/29 12:03:27;;;;;;;;;;;;;;;28.46;31.42;98639.72;2619418;54;19942;-68
2022/07/29 12:06:04;;;;;;;;;;;;;;;28.67;31.29;98634.50;2619336;54;19944;-67
2022/07/29 12:08:42;;;;;;;;;;;;;;;28.88;30.97;98635.50;2619800;54;20410;-68
2022/07/29 12:11:21;;;;;;;;;;;;;;;29.04;30.85;98631.25;2620059;39;20336;-67
2022/07/29 12:13:52;;;;;;;;;;;;;;;29.31;30.62;98632.03;2618842;47;19962;-67
2022/07/29 12:16:22;;;;;;;;;;;;;;;29.41;29.27;98625.50;2619308;54;19945;-67
2022/07/29 12:18:58;;;;;;;;;;;;;;;29.36;29.80;98624.53;2619067;54;19939;-68
2022/07/29 12:21:28;;;;;;;;;;;;;;;29.20;28.99;98626.13;2619313;54;19985;-67
2022/07/29 12:23:59;;;;;;;;;;;;;;;29.15;29.57;98633.63;2618640;54;19954;-68
2022/07/29 12:26:51;;;;;;;;;;;;;;;29.18;28.92;98625.63;2619436;54;19950;-68
2022/07/29 12:29:20;;;;;;;;;;;;;;;29.35;28.67;98630.28;2618915;54;20427;-68
2022/07/29 12:32:03;;;;;;;;;;;;;;;29.34;28.54;98624.03;2619340;54;20065;-67
2022/07/29 12:34:34;;;;;;;;;;;;;;;29.40;28.37;98624.69;2619034;54;19954;-66
2022/07/29 12:37:04;;;;;;;;;;;;;;;29.49;27.89;98616.53;2618989;54;19947;-66
2022/07/29 12:39:35;;;;;;;;;;;;;;;29.44;27.70;98627.59;2619172;54;19951;-67
2022/07/29 12:42:15;;;;;;;;;;;;;;;29.44;27.64;98625.66;2619671;54;19947;-65
2022/07/29 12:44:47;;;;;;;;;;;;;;;29.62;27.60;98623.75;2619304;47;19969;-66
2022/07/29 12:47:17;;;;;;;;;;;;;;;29.70;27.48;98627.56;2620115;54;20422;-66
2022/07/29 12:49:47;;;;;;;;;;;;;;;29.86;26.99;98612.31;2618063;54;20433;-66
2022/07/29 12:52:26;;;;;;;;;;;;;;;29.90;27.19;98624.16;2618800;54;19939;-65
2022/07/29 12:54:56;;;;;;;;;;;;;;;29.98;26.98;98617.91;2619760;54;19950;-68
2022/07/29 12:57:28;;;;;;;;;;;;;;;29.99;26.31;98616.75;2619706;39;20297;-66
2022/07/29 16:17:36;;;;;;;;;;;;;;;31.53;19.07;98569.00;2616715;54;21439;-66
2022/07/29 16:20:06;;;;;;;;;;;;;;;31.58;19.30;98570.72;2617376;46;20034;-67
2022/07/29 16:22:35;;;;;;;;;;;;;;;31.68;18.75;98566.75;2617642;46;19954;-67
2022/07/29 16:25:05;;;;;;;;;;;;;;;31.68;18.73;98558.56;2618160;54;19938;-68
2022/07/29 16:27:34;;;;;;;;;;;;;;;31.53;18.85;98560.03;2617856;39;20333;-68
2022/07/29 16:30:08;;;;;;;;;;;;;;;31.68;18.19;98553.09;2617656;47;20034;-67
2022/07/29 16:32:40;;;;;;;;;;;;;;;31.77;18.51;98556.56;2618482;39;20349;-66
2022/07/29 16:35:10;;;;;;;;;;;;;;;31.85;18.44;98552.97;2617970;54;19943;-67
2022/07/29 16:37:40;;;;;;;;;;;;;;;31.95;18.37;98555.22;2618195;54;19946;-67
2022/07/29 16:40:10;;;;;;;;;;;;;;;31.44;18.89;98549.19;2618091;54;19942;-68
2022/07/29 16:42:40;;;;;;;;;;;;;;;31.28;18.91;98554.44;2618108;54;19947;-67